Witbank, South Africa
Current Conditions -  °F | °C
As of 8:00 PM on Sunday 21 Dec 2014 (Local Time) from FAOR Reporting Station
Clear Clear  
Wind Chill: 70°   Ceiling: Unl
Heat Index: 70°   Visibility: 6mi
Dew Point: 54°   Wind: 3mph
Humidity: 56%   Direction: 60°ENE
Pressure: 30.12"   Gusts: NA
Location:  25.86°S, 29.22°E
Report Text: FAOR 211800Z 06003KT 010V090 CAVOK 21/12 Q1020 NOSIG
Loading
Personal Weather Stations






























Interactive Weather Map New forecast layout! Learn more

10-Day Weather Forecast

Advertisements
Track Severe Weather on mobile